Time;durP1;ratioP1;P1;durP2;ratioP2;P2;SDS_P1;SDS_P2;PMS_P1;PMS_P2;Temp;Humidity;BMP_temperature;BMP_pressure;BME280_temperature;BME280_humidity;BME280_pressure;Samples;Min_cycle;Max_cycle;Signal;HPM_P1;HPM_P2
2021/06/29 00:00:07;;;;;;;10.98;9.88;;;;;;;23.26;63.76;99648.44;5112562;28;20035;-71
2021/06/29 00:02:33;;;;;;;15.32;10.23;;;;;;;23.22;64.23;99643.97;5113715;28;20023;-71
2021/06/29 00:04:58;;;;;;;11.57;9.93;;;;;;;23.12;64.46;99640.78;5114221;28;20046;-71
2021/06/29 00:07:24;;;;;;;14.43;10.50;;;;;;;23.22;63.97;99641.91;5113486;28;20031;-71
2021/06/29 00:09:49;;;;;;;12.30;11.10;;;;;;;23.11;65.05;99646.91;5113965;28;20058;-71
2021/06/29 00:12:15;;;;;;;11.43;9.82;;;;;;;23.18;64.59;99640.34;5113553;27;20054;-71
2021/06/29 00:14:44;;;;;;;14.55;10.63;;;;;;;23.21;64.20;99648.84;5110297;28;20155;-71
2021/06/29 00:17:10;;;;;;;13.57;10.27;;;;;;;23.03;64.71;99646.13;5111443;28;20035;-71
2021/06/29 00:19:38;;;;;;;17.85;10.50;;;;;;;23.04;64.33;99646.94;5111711;28;20036;-71
2021/06/29 00:22:05;;;;;;;12.02;10.55;;;;;;;23.09;64.14;99641.63;5112174;28;20019;-71
2021/06/29 00:24:30;;;;;;;13.18;9.65;;;;;;;23.09;64.39;99640.78;5106311;28;20035;-72
2021/06/29 00:26:56;;;;;;;15.25;10.48;;;;;;;23.10;64.28;99639.56;5112791;28;20404;-71
2021/06/29 00:29:21;;;;;;;13.40;10.00;;;;;;;23.02;64.01;99641.66;5111616;28;20027;-71
2021/06/29 00:31:47;;;;;;;14.13;10.43;;;;;;;22.85;64.39;99644.19;5111736;28;20038;-71
2021/06/29 00:34:12;;;;;;;15.30;10.52;;;;;;;22.53;65.37;99636.59;5112989;28;20027;-71
2021/06/29 00:36:38;;;;;;;11.90;10.70;;;;;;;22.50;65.36;99634.59;5111823;28;20081;-71
2021/06/29 00:39:05;;;;;;;12.18;10.07;;;;;;;22.40;65.46;99636.22;5111685;28;20028;-71
2021/06/29 00:41:33;;;;;;;12.88;10.30;;;;;;;22.30;65.65;99637.88;5112639;28;20076;-71
2021/06/29 00:43:58;;;;;;;12.02;10.02;;;;;;;22.15;66.09;99637.13;5112393;28;20038;-71
2021/06/29 00:46:24;;;;;;;11.13;9.98;;;;;;;22.11;66.16;99636.28;5106788;28;20020;-71
2021/06/29 00:48:50;;;;;;;15.13;9.73;;;;;;;22.22;65.77;99630.59;5113015;28;20039;-71
2021/06/29 00:51:17;;;;;;;12.52;9.65;;;;;;;22.33;65.09;99633.38;5112647;28;20440;-71
2021/06/29 00:53:44;;;;;;;11.02;9.68;;;;;;;22.23;65.31;99631.38;5112563;28;20453;-71
2021/06/29 00:56:14;;;;;;;12.35;9.52;;;;;;;22.21;65.14;99623.25;5111609;28;20473;-71
2021/06/29 00:58:47;;;;;;;17.35;9.63;;;;;;;22.13;65.56;99633.84;5112828;28;20111;-71
2021/06/29 01:01:14;;;;;;;13.50;9.48;;;;;;;22.04;66.08;99624.09;5112434;28;20031;-71
2021/06/29 01:03:43;;;;;;;11.55;8.75;;;;;;;22.24;65.22;99627.31;5111720;28;20173;-70
2021/06/29 01:06:11;;;;;;;14.15;8.80;;;;;;;22.36;64.84;99628.91;5111104;28;20035;-71
2021/06/29 01:08:37;;;;;;;12.38;9.50;;;;;;;22.26;64.69;99625.69;5112228;28;20036;-72
2021/06/29 01:11:02;;;;;;;10.00;8.82;;;;;;;22.27;64.19;99626.50;5112489;28;20606;-71
2021/06/29 01:13:32;;;;;;;11.40;8.63;;;;;;;22.09;64.41;99624.50;5112387;28;20118;-71
2021/06/29 01:15:58;;;;;;;20.33;9.77;;;;;;;21.94;64.91;99626.56;5111151;28;20481;-71
2021/06/29 01:18:24;;;;;;;21.95;9.68;;;;;;;21.97;64.60;99628.59;5112168;28;20043;-71
2021/06/29 01:20:49;;;;;;;12.98;8.48;;;;;;;21.96;64.77;99626.16;5112497;28;20081;-71
2021/06/29 01:23:19;;;;;;;12.30;9.02;;;;;;;21.72;65.97;99632.31;5112016;28;20047;-71
2021/06/29 01:25:45;;;;;;;10.43;8.90;;;;;;;21.85;65.53;99631.88;5112198;28;20043;-70
2021/06/29 01:31:00;;;;;;;11.18;8.63;;;;;;;22.05;64.92;99629.41;5112183;28;20035;-71
2021/06/29 01:33:25;;;;;;;12.85;9.55;;;;;;;22.08;65.71;99639.13;5111952;28;20039;-71
2021/06/29 01:35:51;;;;;;;9.77;8.77;;;;;;;22.04;64.97;99635.50;5112102;28;20046;-71
2021/06/29 01:38:21;;;;;;;13.35;9.77;;;;;;;22.19;64.94;99636.28;5111853;28;20028;-71
2021/06/29 01:40:48;;;;;;;19.27;9.48;;;;;;;22.19;64.18;99628.53;5097696;28;20020;-71
2021/06/29 01:43:14;;;;;;;19.98;9.48;;;;;;;22.32;63.11;99622.38;5111743;28;20031;-71
2021/06/29 01:45:43;;;;;;;18.65;8.55;;;;;;;22.22;63.19;99622.03;5110333;28;20042;-72
2021/06/29 01:48:25;;;;;;;10.55;8.73;;;;;;;22.22;63.29;99630.59;5111693;28;20047;-71
2021/06/29 01:50:55;;;;;;;14.30;8.63;;;;;;;22.43;62.46;99628.88;5110307;28;20385;-71
2021/06/29 01:53:21;;;;;;;;;;;;;;;22.30;63.81;99625.66;5112272;28;20027;-71
2021/06/29 01:55:47;;;;;;;11.88;8.27;;;;;;;22.43;62.56;99626.84;5111469;28;19960;-71
2021/06/29 01:58:18;;;;;;;13.55;9.25;;;;;;;22.40;63.23;99624.81;5111546;28;20489;-71
2021/06/29 02:00:44;;;;;;;13.48;9.85;;;;;;;22.36;63.52;99640.31;5111544;28;20027;-71
2021/06/29 02:03:09;;;;;;;11.10;8.73;;;;;;;22.18;63.94;99635.47;5111480;28;20081;-71
2021/06/29 02:05:35;;;;;;;14.98;9.43;;;;;;;22.29;63.63;99636.25;5111290;28;20019;-71
2021/06/29 02:08:00;;;;;;;10.27;8.88;;;;;;;22.23;63.80;99634.22;5110263;28;20068;-71
2021/06/29 02:10:25;;;;;;;13.80;9.18;;;;;;;22.41;63.02;99635.00;5111375;28;20028;-71
2021/06/29 02:12:52;;;;;;;14.25;8.95;;;;;;;22.48;62.78;99630.47;5110956;28;20016;-71
2021/06/29 02:15:20;;;;;;;15.77;10.52;;;;;;;22.40;63.45;99635.41;5111156;28;20031;-71
2021/06/29 02:17:45;;;;;;;22.30;10.98;;;;;;;22.44;62.36;99636.19;5111064;28;20034;-72
2021/06/29 02:20:12;;;;;;;13.55;9.82;;;;;;;22.28;63.46;99628.91;5122993;27;20487;-71
2021/06/29 02:22:37;;;;;;;17.23;9.57;;;;;;;22.29;63.18;99636.25;5109584;27;20482;-71
2021/06/29 02:25:04;;;;;;;13.00;8.77;;;;;;;22.44;62.71;99641.88;5089749;28;20106;-71
2021/06/29 02:27:29;;;;;;;22.83;9.30;;;;;;;22.33;63.03;99641.13;5100847;28;20521;-71
2021/06/29 02:29:58;;;;;;;19.38;9.38;;;;;;;22.15;63.97;99639.97;5093636;28;20027;-71
2021/06/29 02:32:25;;;;;;;17.15;9.43;;;;;;;21.90;65.14;99647.72;5109430;28;20023;-71
2021/06/29 02:34:52;;;;;;;17.60;9.45;;;;;;;21.90;65.36;99653.41;5107699;28;20062;-71
2021/06/29 02:37:17;;;;;;;18.55;10.07;;;;;;;21.98;65.01;99649.34;5109210;28;20098;-71
2021/06/29 02:39:43;;;;;;;20.05;10.07;;;;;;;22.16;64.46;99635.88;5107888;28;20122;-71
2021/06/29 02:42:08;;;;;;;14.05;8.40;;;;;;;22.37;62.60;99641.94;5107059;28;20023;-71
2021/06/29 02:44:36;;;;;;;14.77;9.05;;;;;;;22.43;62.11;99643.13;5107326;28;20168;-71
2021/06/29 02:47:02;;;;;;;20.30;9.07;;;;;;;22.38;62.67;99649.25;5105441;28;20012;-71
2021/06/29 02:49:28;;;;;;;20.88;9.13;;;;;;;22.13;64.06;99647.28;5107445;28;20040;-71
2021/06/29 02:51:53;;;;;;;16.90;8.60;;;;;;;22.24;63.62;99639.53;5105719;28;20080;-71
2021/06/29 02:54:19;;;;;;;13.45;9.80;;;;;;;22.43;62.85;99645.97;5107406;28;20433;-74
2021/06/29 02:56:44;;;;;;;11.15;9.23;;;;;;;22.39;62.95;99648.84;5092849;28;20493;-71
2021/06/29 02:59:12;;;;;;;21.02;8.60;;;;;;;22.41;63.09;99652.09;5108144;28;20039;-74
2021/06/29 03:01:42;;;;;;;17.85;9.27;;;;;;;22.51;61.52;99641.91;5109177;28;20027;-70
2021/06/29 03:04:08;;;;;;;12.17;8.43;;;;;;;22.41;62.49;99649.25;5107672;28;20115;-73
2021/06/29 03:06:33;;;;;;;31.10;9.68;;;;;;;22.32;62.92;99650.88;5098187;28;20028;-75
2021/06/29 03:09:00;;;;;;;19.55;9.77;;;;;;;22.31;63.05;99655.78;5104568;28;20108;-69
2021/06/29 03:11:26;;;;;;;15.65;10.18;;;;;;;22.06;64.06;99650.13;5109044;28;20038;-70
2021/06/29 03:13:52;;;;;;;16.13;9.40;;;;;;;22.04;64.01;99646.88;5105091;28;20516;-75
2021/06/29 03:16:17;;;;;;;13.70;8.40;;;;;;;22.03;64.21;99654.63;5110338;28;20031;-75
2021/06/29 03:18:43;;;;;;;16.85;8.30;;;;;;;22.12;63.67;99645.66;5110549;28;20036;-71
2021/06/29 03:21:09;;;;;;;21.60;8.25;;;;;;;22.29;63.17;99641.13;5110520;28;20559;-69
2021/06/29 03:23:35;;;;;;;14.93;8.32;;;;;;;22.21;63.36;99633.84;5106916;27;20051;-74
2021/06/29 03:26:01;;;;;;;10.55;8.73;;;;;;;22.15;63.68;99645.66;5104674;28;20498;-70
2021/06/29 03:28:26;;;;;;;14.27;9.43;;;;;;;22.10;64.02;99636.72;5101733;28;20123;-70
2021/06/29 03:30:52;;;;;;;16.08;8.35;;;;;;;22.33;63.08;99641.94;5108689;28;20072;-70
2021/06/29 03:33:17;;;;;;;15.70;8.82;;;;;;;22.34;63.00;99640.72;5105104;28;20028;-72
2021/06/29 03:35:43;;;;;;;15.35;9.13;;;;;;;22.29;63.51;99630.53;5105944;28;20058;-72
2021/06/29 03:38:08;;;;;;;15.57;10.20;;;;;;;22.37;63.61;99633.38;5107038;28;20040;-73
2021/06/29 03:40:34;;;;;;;13.65;9.43;;;;;;;22.48;62.98;99642.72;5101931;28;20024;-69
2021/06/29 03:43:00;;;;;;;16.38;9.43;;;;;;;22.62;62.22;99641.06;5106388;28;20031;-70
2021/06/29 03:45:25;;;;;;;22.67;11.43;;;;;;;22.51;62.26;99641.91;5100841;28;20077;-70
2021/06/29 03:47:51;;;;;;;18.67;9.82;;;;;;;22.39;62.82;99645.19;5105731;28;20063;-70
2021/06/29 03:50:16;;;;;;;16.23;10.52;;;;;;;22.48;62.64;99642.72;5103056;28;20409;-70
2021/06/29 03:52:42;;;;;;;25.95;10.93;;;;;;;22.40;63.09;99647.63;5104013;28;20540;-70
2021/06/29 03:55:08;;;;;;;16.67;10.15;;;;;;;22.39;63.36;99639.47;5106025;28;20038;-70
2021/06/29 03:57:33;;;;;;;16.83;11.18;;;;;;;22.39;63.31;99648.84;5093648;28;20028;-72
2021/06/29 03:59:59;;;;;;;18.95;10.43;;;;;;;22.34;63.57;99642.75;5108553;28;20032;-73
2021/06/29 04:02:27;;;;;;;13.43;10.65;;;;;;;22.36;63.48;99646.00;5092925;28;20077;-70
2021/06/29 04:04:54;;;;;;;25.35;11.18;;;;;;;22.36;63.85;99646.00;5091974;28;20024;-72
2021/06/29 04:07:20;;;;;;;15.68;11.55;;;;;;;22.52;62.74;99649.22;5101902;28;20238;-73
2021/06/29 04:09:45;;;;;;;35.83;12.23;;;;;;;22.55;62.60;99647.59;5106335;28;20053;-74
2021/06/29 04:12:11;;;;;;;18.98;10.48;;;;;;;22.61;62.41;99650.84;5106728;28;20028;-71
2021/06/29 04:14:36;;;;;;;20.40;10.48;;;;;;;22.60;62.25;99654.91;5111547;28;20055;-72
2021/06/29 04:17:02;;;;;;;24.63;12.55;;;;;;;22.48;63.37;99656.97;5113865;28;20024;-71
2021/06/29 04:19:27;;;;;;;18.48;10.10;;;;;;;22.46;63.68;99655.72;5113846;28;20035;-71
2021/06/29 04:21:53;;;;;;;23.92;12.63;;;;;;;22.38;64.53;99654.94;5112486;28;20042;-72
2021/06/29 04:24:19;;;;;;;19.55;11.35;;;;;;;22.50;63.67;99645.97;5112312;28;20076;-72
2021/06/29 04:26:44;;;;;;;31.27;12.52;;;;;;;22.41;63.85;99642.72;5113779;28;20032;-72
2021/06/29 04:29:09;;;;;;;20.38;12.27;;;;;;;22.34;64.61;99648.47;5113346;28;20035;-71
2021/06/29 04:31:35;;;;;;;21.73;12.60;;;;;;;22.28;65.10;99645.22;5113443;28;20031;-72
2021/06/29 04:34:01;;;;;;;26.60;12.10;;;;;;;22.27;64.01;99646.44;5113672;28;20023;-71
2021/06/29 04:36:26;;;;;;;26.02;11.48;;;;;;;22.23;64.28;99655.00;5113142;28;20604;-72
2021/06/29 04:38:52;;;;;;;30.30;12.93;;;;;;;22.43;63.83;99651.66;5112017;28;20042;-71
2021/06/29 04:41:17;;;;;;;23.45;11.02;;;;;;;22.41;63.88;99654.13;5113598;28;20400;-72
2021/06/29 04:43:44;;;;;;;22.40;10.55;;;;;;;22.55;63.33;99654.09;5111760;28;20023;-72
2021/06/29 04:46:10;;;;;;;21.20;11.23;;;;;;;22.43;63.57;99648.81;5113310;28;20256;-71
2021/06/29 04:48:38;;;;;;;25.35;11.75;;;;;;;22.34;64.30;99659.84;5113020;28;20027;-72
2021/06/29 04:51:05;;;;;;;23.70;12.05;;;;;;;22.31;64.23;99658.63;5113106;28;20024;-72
2021/06/29 04:53:31;;;;;;;26.20;12.15;;;;;;;22.24;64.08;99656.63;5113206;28;20132;-72
2021/06/29 04:55:56;;;;;;;28.17;11.07;;;;;;;22.38;63.80;99664.28;5113366;28;20513;-72
2021/06/29 04:58:21;;;;;;;21.92;11.95;;;;;;;22.42;63.43;99659.41;5111596;28;20023;-71
2021/06/29 05:00:49;;;;;;;21.60;11.55;;;;;;;22.38;63.72;99657.78;5112853;27;20031;-71
2021/06/29 05:03:15;;;;;;;35.40;12.23;;;;;;;22.34;64.36;99666.34;5111605;28;20063;-71
2021/06/29 05:05:41;;;;;;;18.67;11.45;;;;;;;22.42;63.93;99661.44;5112696;28;20468;-72
2021/06/29 05:08:07;;;;;;;15.02;11.70;;;;;;;22.24;64.13;99656.63;5112702;28;20031;-71
2021/06/29 05:10:33;;;;;;;20.10;12.20;;;;;;;22.38;64.39;99654.94;5112493;27;20023;-72
2021/06/29 05:12:59;;;;;;;18.95;13.38;;;;;;;22.50;64.28;99656.56;5112475;28;20557;-71
2021/06/29 05:15:24;;;;;;;17.95;12.43;;;;;;;22.63;63.58;99654.06;5112535;28;20035;-71
2021/06/29 05:17:50;;;;;;;16.58;12.77;;;;;;;22.72;63.17;99652.38;5111288;28;20031;-72
2021/06/29 05:20:15;;;;;;;18.45;12.55;;;;;;;22.83;63.78;99648.69;5112399;28;20042;-71
2021/06/29 05:22:41;;;;;;;27.08;12.23;;;;;;;22.93;61.51;99653.53;5111185;28;20512;-72
2021/06/29 05:25:08;;;;;;;17.23;11.85;;;;;;;22.86;62.29;99647.84;5112584;28;20104;-71
2021/06/29 05:27:36;;;;;;;16.90;11.32;;;;;;;22.99;61.36;99649.03;5107343;28;20058;-72
2021/06/29 05:30:02;;;;;;;16.80;12.13;;;;;;;23.10;62.13;99648.13;5111792;28;20459;-71
2021/06/29 05:32:28;;;;;;;61.90;16.13;;;;;;;23.07;61.42;99649.78;5111399;28;20028;-71
2021/06/29 05:34:53;;;;;;;20.40;12.68;;;;;;;23.20;61.23;99655.78;5112164;28;20089;-74
2021/06/29 05:37:18;;;;;;;15.27;11.98;;;;;;;23.24;60.54;99645.19;5112236;28;20035;-69
2021/06/29 05:39:44;;;;;;;19.80;12.23;;;;;;;23.41;60.07;99646.31;5112304;28;20042;-70
2021/06/29 05:42:10;;;;;;;17.90;12.15;;;;;;;23.47;60.18;99640.16;5112143;28;20035;-72
2021/06/29 05:44:35;;;;;;;22.05;14.85;;;;;;;23.55;60.40;99639.69;5112337;28;20032;-70
2021/06/29 05:47:04;;;;;;;20.75;13.30;;;;;;;23.66;59.35;99638.78;5111720;28;20020;-71
2021/06/29 05:49:30;;;;;;;26.38;14.02;;;;;;;23.75;59.68;99635.44;5110647;28;20100;-70
2021/06/29 05:51:55;;;;;;;24.67;14.73;;;;;;;23.95;58.95;99641.34;5111472;28;20028;-71
2021/06/29 05:54:21;;;;;;;23.83;15.15;;;;;;;23.95;59.20;99639.31;5112210;28;20492;-71
2021/06/29 05:56:46;;;;;;;22.75;14.55;;;;;;;24.07;59.20;99640.06;5111647;28;20471;-71
2021/06/29 05:59:12;;;;;;;28.08;16.25;;;;;;;24.10;59.06;99636.34;5111971;28;20032;-71
2021/06/29 06:01:38;;;;;;;19.48;15.02;;;;;;;24.10;59.69;99645.75;5110833;28;20028;-72
2021/06/29 06:04:03;;;;;;;26.83;14.13;;;;;;;24.31;58.63;99637.34;5124401;27;20027;-69
2021/06/29 06:06:29;;;;;;;18.08;14.60;;;;;;;24.30;59.40;99642.25;5114494;27;20034;-69
2021/06/29 06:08:54;;;;;;;23.30;15.65;;;;;;;24.32;58.58;99638.97;5103379;28;20069;-71
2021/06/29 06:11:20;;;;;;;26.02;15.43;;;;;;;24.34;59.07;99636.50;5102745;28;20019;-69
2021/06/29 06:13:46;;;;;;;22.30;15.50;;;;;;;24.46;58.25;99626.56;5107702;28;20047;-69
2021/06/29 06:16:12;;;;;;;19.45;14.98;;;;;;;24.53;58.69;99641.59;5095602;28;20108;-69
2021/06/29 06:18:38;;;;;;;20.20;14.95;;;;;;;24.59;58.06;99641.91;5109462;28;20070;-71
2021/06/29 06:21:05;;;;;;;22.48;15.65;;;;;;;24.88;58.00;99624.41;5111270;28;20103;-70
2021/06/29 06:23:31;;;;;;;27.48;15.45;;;;;;;24.90;57.74;99632.56;5111411;28;20032;-70
2021/06/29 06:25:56;;;;;;;26.70;16.20;;;;;;;25.03;57.72;99633.59;5108523;28;20043;-71
2021/06/29 06:28:22;;;;;;;28.15;16.65;;;;;;;25.18;57.67;99622.75;5110789;28;20036;-70
2021/06/29 06:30:47;;;;;;;22.75;16.83;;;;;;;25.08;56.34;99630.25;5110375;28;20031;-71
2021/06/29 06:33:13;;;;;;;25.30;16.83;;;;;;;25.20;56.84;99617.41;5109472;28;20067;-71
2021/06/29 06:35:38;;;;;;;28.67;18.60;;;;;;;25.36;56.49;99616.75;5109230;28;20559;-70
2021/06/29 06:38:04;;;;;;;28.02;18.48;;;;;;;25.41;56.12;99626.06;5109333;28;20546;-72
2021/06/29 06:40:48;;;;;;;24.40;18.48;;;;;;;25.41;57.03;99614.63;5110204;28;20422;-71
2021/06/29 06:43:14;;;;;;;25.50;17.92;;;;;;;25.61;56.11;99615.56;5110202;28;20201;-71
2021/06/29 06:45:39;;;;;;;24.77;18.10;;;;;;;25.55;56.58;99608.69;5110167;28;20019;-71
2021/06/29 06:48:08;;;;;;;26.55;17.95;;;;;;;25.71;56.57;99610.88;5110543;28;20027;-70
2021/06/29 06:50:33;;;;;;;30.70;18.63;;;;;;;25.75;57.18;99610.81;5110052;28;20120;-70
2021/06/29 06:52:59;;;;;;;25.60;18.42;;;;;;;25.83;56.81;99617.22;5109664;28;20027;-67
2021/06/29 06:55:25;;;;;;;30.20;19.35;;;;;;;25.86;56.04;99620.03;5110682;28;20016;-70
2021/06/29 06:57:54;;;;;;;26.50;19.00;;;;;;;25.77;56.35;99622.63;5110744;28;20049;-70
2021/06/29 07:00:21;;;;;;;27.35;18.33;;;;;;;25.85;57.15;99614.72;5109272;28;20020;-70
2021/06/29 07:02:47;;;;;;;26.00;17.50;;;;;;;26.03;57.35;99615.22;5110071;28;20115;-70
2021/06/29 07:05:13;;;;;;;26.92;18.60;;;;;;;26.34;56.39;99609.28;5111191;28;20420;-70
2021/06/29 07:07:38;;;;;;;36.20;18.67;;;;;;;26.34;56.14;99620.75;5095488;28;20024;-70
2021/06/29 07:10:06;;;;;;;28.23;17.92;;;;;;;26.37;55.88;99616.22;5111110;28;20048;-70
2021/06/29 07:12:32;;;;;;;24.95;17.63;;;;;;;26.36;56.13;99617.47;5110375;28;20152;-70
2021/06/29 07:14:57;;;;;;;30.67;19.52;;;;;;;26.47;57.01;99612.31;5109447;28;20031;-70
2021/06/29 07:17:23;;;;;;;27.70;18.80;;;;;;;26.54;56.28;99605.63;5109286;28;20031;-70
2021/06/29 07:19:49;;;;;;;27.63;18.77;;;;;;;26.73;56.15;99614.66;5107514;28;20034;-70
2021/06/29 07:22:15;;;;;;;26.77;19.70;;;;;;;26.82;56.28;99609.09;5100431;28;20027;-72
2021/06/29 07:24:41;;;;;;;26.23;17.77;;;;;;;26.99;54.52;99603.47;5102938;28;20024;-71
2021/06/29 07:27:07;;;;;;;30.15;18.25;;;;;;;27.23;53.64;99601.22;5103712;28;20062;-71
2021/06/29 07:29:32;;;;;;;25.88;18.20;;;;;;;27.04;53.83;99603.72;5105279;28;20107;-70
2021/06/29 07:31:59;;;;;;;24.27;17.17;;;;;;;27.08;55.51;99605.69;5110792;28;20023;-70
2021/06/29 07:34:24;;;;;;;29.40;17.25;;;;;;;27.05;54.93;99601.66;5123087;28;20055;-70
2021/06/29 07:36:49;;;;;;;23.83;18.00;;;;;;;27.16;56.28;99595.69;5115528;28;20532;-70
2021/06/29 07:39:15;;;;;;;27.92;18.02;;;;;;;27.39;55.66;99593.88;5126087;27;21267;-69
2021/06/29 07:41:40;;;;;;;30.55;18.80;;;;;;;27.51;53.19;99593.16;5122147;27;20011;-70
2021/06/29 07:44:06;;;;;;;31.42;17.52;;;;;;;27.53;53.72;99601.31;5093357;28;20039;-71
2021/06/29 07:46:31;;;;;;;23.45;18.20;;;;;;;27.81;51.86;99594.06;5091617;28;20020;-71
2021/06/29 07:48:57;;;;;;;20.23;17.98;;;;;;;27.66;52.47;99598.56;5102780;28;20028;-71
2021/06/29 07:51:23;;;;;;;28.35;18.08;;;;;;;27.67;53.55;99591.56;5110762;27;20030;-70
2021/06/29 07:53:48;;;;;;;20.13;16.67;;;;;;;27.78;53.55;99594.97;5090334;28;20035;-71
2021/06/29 07:56:14;;;;;;;23.20;18.10;;;;;;;27.97;51.04;99589.53;5099722;28;20382;-71
2021/06/29 07:58:44;;;;;;;22.10;16.92;;;;;;;28.04;51.81;99592.22;5099198;28;20028;-70
2021/06/29 08:01:11;;;;;;;23.40;16.23;;;;;;;28.11;52.02;99594.88;5098339;28;20152;-72
2021/06/29 08:03:37;;;;;;;20.77;16.35;;;;;;;28.15;50.69;99584.09;5093578;28;20089;-72
2021/06/29 08:06:02;;;;;;;27.63;16.42;;;;;;;28.17;51.68;99590.22;5096731;28;20020;-72
2021/06/29 08:08:29;;;;;;;22.67;15.77;;;;;;;28.33;51.57;99568.41;5088232;28;20202;-71
2021/06/29 08:10:54;;;;;;;24.13;16.95;;;;;;;28.54;50.35;99569.88;5096575;28;20455;-71
2021/06/29 08:13:20;;;;;;;20.48;14.98;;;;;;;28.69;51.41;99581.72;5104451;28;20122;-71
2021/06/29 08:15:45;;;;;;;19.27;15.60;;;;;;;28.71;49.78;99576.31;5113856;27;20106;-71
2021/06/29 08:18:12;;;;;;;17.48;15.38;;;;;;;28.88;49.66;99575.44;5112396;28;20085;-72
2021/06/29 08:20:38;;;;;;;17.50;14.25;;;;;;;29.21;47.99;99580.97;5113764;28;20110;-71
2021/06/29 08:23:03;;;;;;;20.13;14.65;;;;;;;29.25;47.21;99573.00;5112176;28;20131;-71
2021/06/29 08:25:29;;;;;;;17.00;14.13;;;;;;;29.00;47.81;99577.50;5112637;28;20027;-71
2021/06/29 08:27:54;;;;;;;24.45;15.38;;;;;;;28.88;48.49;99572.56;5113307;28;20028;-71
2021/06/29 08:30:22;;;;;;;17.55;15.30;;;;;;;28.97;46.60;99570.63;5113477;28;20035;-71
2021/06/29 08:32:48;;;;;;;21.00;14.80;;;;;;;29.04;47.84;99565.88;5112310;28;20024;-71
2021/06/29 08:35:13;;;;;;;19.55;14.02;;;;;;;29.17;47.94;99555.16;5113060;28;20047;-72
2021/06/29 08:37:40;;;;;;;24.20;15.20;;;;;;;29.23;48.51;99561.16;5113541;28;20462;-73
2021/06/29 08:40:09;;;;;;;18.45;13.88;;;;;;;29.50;48.48;99556.97;5112941;28;20036;-75
2021/06/29 08:42:37;;;;;;;21.13;14.85;;;;;;;29.63;47.17;99556.97;5112143;28;20054;-75
2021/06/29 08:45:05;;;;;;;16.80;13.60;;;;;;;29.77;44.71;99558.53;5113498;28;20382;-77
2021/06/29 08:47:33;;;;;;;18.50;12.75;;;;;;;29.56;43.69;99555.97;5111801;28;20059;-71
2021/06/29 08:49:58;;;;;;;17.38;13.85;;;;;;;29.53;44.96;99556.88;5113383;28;20458;-71
2021/06/29 08:52:24;;;;;;;24.08;14.02;;;;;;;29.67;46.73;99554.75;5113067;28;20156;-71
2021/06/29 08:54:50;;;;;;;27.13;14.75;;;;;;;29.86;46.39;99555.72;5111886;28;20051;-72
2021/06/29 08:57:15;;;;;;;18.45;13.50;;;;;;;30.01;44.50;99550.25;5117065;27;20032;-70
2021/06/29 08:59:44;;;;;;;17.70;12.35;;;;;;;30.11;44.18;99548.28;5105499;28;20027;-72
2021/06/29 09:02:09;;;;;;;19.20;13.95;;;;;;;30.37;43.28;99542.38;5103883;28;20034;-71
2021/06/29 09:04:55;;;;;;;15.95;13.48;;;;;;;30.28;46.16;99539.41;5103767;28;20393;-71
2021/06/29 09:07:23;;;;;;;24.23;15.65;;;;;;;30.32;46.13;99534.31;5102901;28;20057;-71
2021/06/29 09:09:54;;;;;;;20.50;14.40;;;;;;;30.54;46.15;99529.31;5091029;28;20051;-71
2021/06/29 09:12:38;;;;;;;35.15;20.92;;;;;;;30.57;44.30;99518.91;5099105;28;20028;-71
2021/06/29 09:15:24;;;;;;;28.42;16.70;;;;;;;30.71;44.46;99514.69;5100128;28;20031;-73
2021/06/29 09:17:51;;;;;;;17.05;13.10;;;;;;;30.65;44.45;99517.41;5112261;28;20028;-73
2021/06/29 09:20:34;;;;;;;15.68;12.52;;;;;;;30.56;44.12;99516.50;5112610;27;20493;-75
2021/06/29 09:23:13;;;;;;;13.77;11.80;;;;;;;30.56;42.81;99514.44;5112472;28;20482;-73
2021/06/29 09:25:41;;;;;;;18.50;12.32;;;;;;;30.68;42.79;99507.78;5097451;28;20024;-72
2021/06/29 09:28:08;;;;;;;15.48;11.70;;;;;;;30.78;41.91;99511.50;5105243;28;20076;-71
2021/06/29 09:30:33;;;;;;;14.43;11.32;;;;;;;30.93;40.00;99508.84;5106374;28;20103;-72
2021/06/29 09:33:04;;;;;;;15.52;11.55;;;;;;;31.02;41.16;99510.16;5107156;28;20556;-71
2021/06/29 09:35:30;;;;;;;17.63;14.15;;;;;;;31.09;43.04;99515.63;5104790;28;20513;-70
2021/06/29 09:37:57;;;;;;;17.52;12.50;;;;;;;31.30;41.49;99504.47;5097077;28;20077;-72
2021/06/29 09:40:24;;;;;;;18.13;11.50;;;;;;;31.46;40.93;99507.06;5102674;28;20280;-70
2021/06/29 09:42:50;;;;;;;16.88;12.82;;;;;;;31.50;41.11;99498.22;5104732;28;20085;-71
2021/06/29 09:45:41;;;;;;;13.88;12.35;;;;;;;31.68;40.47;99503.22;5106075;27;20020;-71
2021/06/29 09:48:10;;;;;;;19.35;14.05;;;;;;;31.78;40.05;99498.22;5099506;27;20028;-71
2021/06/29 09:50:52;;;;;;;14.07;12.05;;;;;;;31.87;40.24;99497.47;5099350;27;20016;-72
2021/06/29 09:53:46;;;;;;;20.90;14.48;;;;;;;31.86;40.28;99495.88;5106120;28;20031;-71
2021/06/29 09:56:15;;;;;;;19.27;14.13;;;;;;;32.00;40.23;99495.22;5094301;27;20036;-71
2021/06/29 09:58:46;;;;;;;24.63;15.52;;;;;;;32.01;38.00;99488.13;5107302;28;20031;-73
2021/06/29 10:01:17;;;;;;;18.98;13.25;;;;;;;32.22;40.46;99485.53;5100337;28;20101;-72
2021/06/29 10:03:43;;;;;;;19.60;14.75;;;;;;;32.32;40.32;99483.41;5103478;27;20031;-72
2021/06/29 10:06:10;;;;;;;18.70;13.65;;;;;;;32.52;39.90;99477.09;5095922;28;20038;-74
2021/06/29 10:08:37;;;;;;;20.17;13.73;;;;;;;32.57;39.86;99467.75;5101478;28;20536;-75
2021/06/29 10:11:06;;;;;;;23.65;15.23;;;;;;;32.95;36.63;99474.19;5107624;27;20016;-77
2021/06/29 10:13:36;;;;;;;20.52;15.77;;;;;;;32.93;38.00;99464.41;5110894;27;20055;-77
2021/06/29 10:16:06;;;;;;;20.60;16.55;;;;;;;32.83;37.08;99464.44;5106066;28;20034;-77
2021/06/29 10:18:36;;;;;;;24.65;14.93;;;;;;;32.76;38.43;99456.09;5116337;27;20477;-77
2021/06/29 10:21:13;;;;;;;;;;;;;;;32.87;39.77;99450.56;5106830;28;20036;-77
2021/06/29 10:23:40;;;;;;;19.45;14.48;;;;;;;32.90;39.85;99455.41;5107617;28;19919;-77
2021/06/29 10:26:06;;;;;;;21.15;14.70;;;;;;;32.78;39.79;99453.50;5115496;27;20023;-77
2021/06/29 10:28:33;;;;;;;16.98;13.48;;;;;;;32.71;39.88;99451.00;5118870;27;20035;-75
2021/06/29 10:30:59;;;;;;;59.75;17.10;;;;;;;32.83;38.33;99446.25;5126598;27;20459;-76
2021/06/29 10:33:26;;;;;;;17.08;12.82;;;;;;;32.84;37.84;99444.94;5101003;27;20103;-80
2021/06/29 10:35:53;;;;;;;22.92;13.95;;;;;;;32.97;38.55;99438.97;5101182;28;20044;-76
2021/06/29 10:38:20;;;;;;;15.18;12.52;;;;;;;33.04;37.25;99436.50;5105148;27;20057;-77
2021/06/29 10:40:50;;;;;;;18.00;12.52;;;;;;;33.08;36.13;99436.31;5126759;27;20026;-76
2021/06/29 10:43:16;;;;;;;15.63;12.38;;;;;;;33.16;37.38;99440.44;5118130;27;20027;-76
2021/06/29 10:45:41;;;;;;;16.65;12.48;;;;;;;32.97;34.87;99436.84;5123495;27;20024;-75
2021/06/29 10:48:27;;;;;;;17.98;12.93;;;;;;;33.03;37.00;99429.09;5126466;27;20027;-75
2021/06/29 10:50:55;;;;;;;17.85;13.43;;;;;;;33.14;36.11;99425.66;5122482;27;20026;-78
2021/06/29 10:53:50;;;;;;;15.68;11.93;;;;;;;33.23;37.16;99415.28;5128600;27;20046;-73
2021/06/29 10:56:19;;;;;;;18.95;11.07;;;;;;;33.35;36.15;99414.22;5111401;27;20556;-74
2021/06/29 10:58:50;;;;;;;16.00;10.15;;;;;;;33.65;32.09;99402.72;5115722;27;20249;-74
2021/06/29 11:01:28;;;;;;;12.27;9.63;;;;;;;33.55;32.58;99396.22;5101925;28;20031;-74
2021/06/29 11:03:57;;;;;;;12.80;10.50;;;;;;;33.81;34.53;99386.94;5100941;28;20534;-74
2021/06/29 11:06:41;;;;;;;12.07;10.73;;;;;;;34.01;34.46;99391.25;5100086;28;20032;-74
2021/06/29 11:09:07;;;;;;;14.38;11.25;;;;;;;33.89;33.55;99391.03;5104032;28;20048;-74
2021/06/29 11:11:33;;;;;;;14.55;10.45;;;;;;;33.71;33.57;99379.63;5100813;28;20493;-74
2021/06/29 11:13:59;;;;;;;16.55;11.25;;;;;;;33.70;35.42;99375.94;5110600;28;20035;-75
2021/06/29 11:16:54;;;;;;;13.75;10.13;;;;;;;33.70;35.12;99380.91;5100201;27;20545;-75
2021/06/29 11:19:21;;;;;;;14.88;10.95;;;;;;;33.98;35.75;99377.75;5104849;28;20552;-74
2021/06/29 11:21:46;;;;;;;16.50;11.40;;;;;;;34.02;36.85;99373.34;5100700;28;20028;-75